Time;durP1;ratioP1;P1;durP2;ratioP2;P2;SDS_P1;SDS_P2;PMS_P1;PMS_P2;Temp;Humidity;BMP_temperature;BMP_pressure;BME280_temperature;BME280_humidity;BME280_pressure;Samples;Min_cycle;Max_cycle;Signal;HPM_P1;HPM_P2
2023/12/08 00:02:18;;;;;;;25.10;13.80;;;;;;;;;;5052772;28;20445;-72
2023/12/08 00:04:43;;;;;;;12.03;10.10;;;;;;;;;;5052489;28;20492;-71
2023/12/08 00:07:09;;;;;;;19.47;12.70;;;;;;;;;;5052981;28;20421;-71
2023/12/08 00:09:35;;;;;;;13.20;9.37;;;;;;;;;;5052895;28;20555;-72
2023/12/08 00:12:01;;;;;;;13.67;8.07;;;;;;;;;;5052051;28;20860;-72
2023/12/08 00:14:27;;;;;;;12.90;8.40;;;;;;;;;;5052812;28;20426;-72
2023/12/08 00:16:53;;;;;;;10.10;8.30;;;;;;;;;;5052687;28;20421;-71
2023/12/08 00:19:20;;;;;;;12.07;8.97;;;;;;;;;;5052551;28;20956;-72
2023/12/08 00:21:46;;;;;;;13.43;9.10;;;;;;;;;;5052734;28;20484;-72
2023/12/08 00:24:12;;;;;;;9.20;7.83;;;;;;;;;;5051169;28;20469;-72
2023/12/08 00:26:38;;;;;;;9.23;7.77;;;;;;;;;;5052620;28;20406;-72
2023/12/08 00:29:04;;;;;;;8.03;7.33;;;;;;;;;;5052764;28;20418;-72
2023/12/08 00:31:30;;;;;;;7.07;6.30;;;;;;;;;;5053025;28;20407;-72
2023/12/08 00:33:56;;;;;;;7.13;6.50;;;;;;;;;;5052422;28;20425;-72
2023/12/08 00:36:22;;;;;;;19.30;11.30;;;;;;;;;;5053133;28;20492;-72
2023/12/08 00:38:48;;;;;;;7.80;6.90;;;;;;;;;;5052769;28;20418;-72
2023/12/08 00:41:14;;;;;;;9.20;7.20;;;;;;;;;;5052296;28;20417;-71
2023/12/08 00:43:40;;;;;;;19.67;9.80;;;;;;;;;;5052170;28;20477;-72
2023/12/08 00:46:09;;;;;;;124.33;42.40;;;;;;;;;;5052297;28;20415;-72
2023/12/08 00:48:35;;;;;;;21.20;11.53;;;;;;;;;;5052535;28;20425;-71
2023/12/08 00:51:01;;;;;;;12.27;8.80;;;;;;;;;;5052597;28;20747;-72
2023/12/08 00:53:27;;;;;;;8.10;7.30;;;;;;;;;;5052292;28;20512;-72
2023/12/08 00:55:52;;;;;;;9.63;8.07;;;;;;;;;;5055055;28;20476;-72
2023/12/08 00:58:18;;;;;;;8.73;7.90;;;;;;;;;;5055837;28;20415;-72
2023/12/08 01:00:45;;;;;;;9.93;8.80;;;;;;;;;;5056065;28;20414;-71
2023/12/08 01:03:11;;;;;;;29.77;14.77;;;;;;;;;;5055910;28;20465;-72
2023/12/08 01:05:37;;;;;;;22.97;13.67;;;;;;;;;;5055508;28;20472;-71
2023/12/08 01:08:03;;;;;;;14.30;10.10;;;;;;;;;;5055937;28;20729;-72
2023/12/08 01:10:29;;;;;;;13.23;7.77;;;;;;;;;;5056382;28;20891;-72
2023/12/08 01:12:55;;;;;;;8.17;7.37;;;;;;;;;;5055593;28;20890;-71
2023/12/08 01:15:21;;;;;;;9.20;7.63;;;;;;;;;;5055761;28;20419;-72
2023/12/08 01:17:47;;;;;;;10.90;8.40;;;;;;;;;;5055695;28;20411;-72
2023/12/08 01:20:13;;;;;;;10.80;8.00;;;;;;;;;;5054424;28;20568;-72
2023/12/08 01:22:39;;;;;;;9.40;8.50;;;;;;;;;;5055512;28;20516;-72
2023/12/08 01:25:06;;;;;;;9.87;7.90;;;;;;;;;;5055116;28;20414;-72
2023/12/08 01:27:31;;;;;;;10.80;7.80;;;;;;;;;;5055244;28;20445;-72
2023/12/08 01:29:57;;;;;;;7.60;6.90;;;;;;;;;;5055018;28;20414;-72
2023/12/08 01:32:23;;;;;;;10.00;7.87;;;;;;;;;;5055442;28;20434;-72
2023/12/08 01:34:49;;;;;;;9.33;7.83;;;;;;;;;;5055142;28;20808;-72
2023/12/08 01:37:15;;;;;;;20.53;7.33;;;;;;;;;;5055083;28;20402;-72
2023/12/08 01:39:41;;;;;;;10.80;9.67;;;;;;;;;;5055075;28;20419;-71
2023/12/08 01:42:07;;;;;;;10.17;8.57;;;;;;;;;;5055244;28;20937;-72
2023/12/08 01:44:34;;;;;;;13.53;9.63;;;;;;;;;;5055229;28;20545;-71
2023/12/08 01:47:00;;;;;;;11.17;8.47;;;;;;;;;;5055470;28;20821;-72
2023/12/08 01:49:26;;;;;;;9.00;8.20;;;;;;;;;;5055022;28;20426;-72
2023/12/08 01:51:52;;;;;;;10.00;8.20;;;;;;;;;;5055122;28;20783;-72
2023/12/08 01:54:18;;;;;;;16.70;8.97;;;;;;;;;;5054779;28;20430;-72
2023/12/08 01:56:44;;;;;;;10.00;7.80;;;;;;;;;;5054748;28;20472;-71
2023/12/08 02:02:14;;;;;;;7.63;6.83;;;;;;;;;;5054574;28;20393;-71
2023/12/08 02:04:43;;;;;;;14.80;8.37;;;;;;;;;;5054405;28;20478;-72
2023/12/08 02:07:10;;;;;;;7.73;7.00;;;;;;;;;;5053956;28;20418;-72
2023/12/08 02:09:36;;;;;;;9.97;7.90;;;;;;;;;;5054712;28;20418;-72
2023/12/08 02:12:02;;;;;;;8.97;8.17;;;;;;;;;;5054419;28;20902;-72
2023/12/08 02:14:28;;;;;;;9.53;8.50;;;;;;;;;;5054608;28;20418;-71
2023/12/08 02:16:56;;;;;;;11.83;6.80;;;;;;;;;;5054337;28;20859;-71
2023/12/08 02:19:22;;;;;;;7.80;6.87;;;;;;;;;;5054357;28;20418;-72
2023/12/08 02:21:48;;;;;;;9.83;8.47;;;;;;;;;;5054385;28;20443;-71
2023/12/08 02:24:19;;;;;;;8.00;6.80;;;;;;;;;;5054407;28;20567;-71
2023/12/08 02:26:45;;;;;;;15.43;9.33;;;;;;;;;;5054218;28;20398;-72
2023/12/08 02:29:11;;;;;;;30.10;15.90;;;;;;;;;;5054055;28;20838;-72
2023/12/08 02:31:46;;;;;;;40.97;18.80;;;;;;;;;;5053136;28;20415;-72
2023/12/08 02:34:16;;;;;;;8.83;7.97;;;;;;;;;;5054230;28;20394;-72
2023/12/08 02:36:42;;;;;;;9.47;8.03;;;;;;;;;;5053928;28;20873;-72
2023/12/08 02:39:10;;;;;;;8.67;7.80;;;;;;;;;;5053939;28;20476;-72
2023/12/08 02:41:36;;;;;;;9.53;8.37;;;;;;;;;;5053785;28;20433;-72
2023/12/08 02:44:02;;;;;;;7.93;7.20;;;;;;;;;;5053752;28;20527;-73
2023/12/08 02:46:27;;;;;;;7.87;7.27;;;;;;;;;;5054044;28;20414;-72
2023/12/08 02:48:53;;;;;;;8.53;7.77;;;;;;;;;;5052511;28;20505;-71
2023/12/08 02:51:19;;;;;;;7.20;6.63;;;;;;;;;;5053931;28;20418;-71
2023/12/08 02:53:45;;;;;;;7.93;7.30;;;;;;;;;;5053853;28;20805;-72
2023/12/08 02:56:11;;;;;;;8.63;7.80;;;;;;;;;;5053719;28;20940;-72
2023/12/08 02:58:37;;;;;;;8.13;7.13;;;;;;;;;;5053526;28;20515;-72
2023/12/08 03:01:03;;;;;;;7.10;6.60;;;;;;;;;;5054217;28;20414;-72
2023/12/08 03:03:29;;;;;;;10.53;7.67;;;;;;;;;;5053142;28;20488;-72
2023/12/08 03:05:55;;;;;;;7.83;7.07;;;;;;;;;;5053684;28;20417;-72
2023/12/08 03:08:21;;;;;;;7.97;7.17;;;;;;;;;;5053680;28;20488;-72
2023/12/08 03:10:48;;;;;;;7.40;6.70;;;;;;;;;;5053606;28;20535;-71
2023/12/08 03:13:14;;;;;;;7.90;7.30;;;;;;;;;;5053573;28;20457;-71
2023/12/08 03:15:40;;;;;;;8.13;7.33;;;;;;;;;;5053333;28;20855;-72
2023/12/08 03:18:06;;;;;;;11.17;8.20;;;;;;;;;;5053036;28;20465;-72
2023/12/08 03:20:32;;;;;;;7.80;7.07;;;;;;;;;;5053196;28;20793;-72
2023/12/08 03:22:58;;;;;;;7.90;7.10;;;;;;;;;;5052614;28;20456;-72
2023/12/08 03:25:25;;;;;;;7.80;7.10;;;;;;;;;;5053422;28;20434;-72
2023/12/08 03:27:51;;;;;;;7.07;6.47;;;;;;;;;;5053387;28;20422;-71
2023/12/08 03:30:17;;;;;;;10.57;7.30;;;;;;;;;;5051857;28;20835;-72
2023/12/08 03:32:43;;;;;;;8.10;7.30;;;;;;;;;;5053077;28;20446;-71
2023/12/08 03:35:09;;;;;;;8.47;7.27;;;;;;;;;;5053127;28;20507;-72
2023/12/08 03:37:35;;;;;;;8.60;7.20;;;;;;;;;;5053221;28;20568;-72
2023/12/08 03:40:01;;;;;;;7.70;7.00;;;;;;;;;;5051711;28;20434;-72
2023/12/08 03:42:27;;;;;;;7.67;6.93;;;;;;;;;;5053167;28;20429;-72
2023/12/08 03:44:53;;;;;;;6.90;6.30;;;;;;;;;;5053111;28;20581;-72
2023/12/08 03:47:19;;;;;;;9.20;6.97;;;;;;;;;;5052898;28;20462;-72
2023/12/08 03:49:45;;;;;;;7.70;6.90;;;;;;;;;;5053569;28;20435;-72
2023/12/08 03:52:11;;;;;;;7.67;6.97;;;;;;;;;;5053022;28;20418;-71
2023/12/08 03:54:37;;;;;;;9.33;6.80;;;;;;;;;;5052897;28;20422;-72
2023/12/08 03:57:03;;;;;;;8.00;7.30;;;;;;;;;;5053106;28;20410;-72
2023/12/08 03:59:29;;;;;;;7.87;7.17;;;;;;;;;;5052747;28;20418;-72
2023/12/08 04:01:55;;;;;;;7.23;6.50;;;;;;;;;;5053021;28;20414;-71
2023/12/08 04:04:21;;;;;;;9.33;6.97;;;;;;;;;;5052293;28;20577;-72
2023/12/08 04:06:47;;;;;;;7.63;6.80;;;;;;;;;;5052676;28;20430;-72
2023/12/08 04:09:13;;;;;;;8.53;7.23;;;;;;;;;;5053476;28;20422;-72
2023/12/08 04:11:39;;;;;;;7.97;7.17;;;;;;;;;;5052880;28;20933;-71
2023/12/08 04:14:05;;;;;;;7.93;7.10;;;;;;;;;;5052683;28;20937;-72
2023/12/08 04:16:31;;;;;;;7.30;6.60;;;;;;;;;;5053214;28;20827;-71
2023/12/08 04:18:57;;;;;;;7.27;6.67;;;;;;;;;;5052824;28;20922;-72
2023/12/08 04:21:23;;;;;;;8.10;7.30;;;;;;;;;;5052844;28;20902;-72
2023/12/08 04:23:48;;;;;;;8.97;7.87;;;;;;;;;;5052425;28;20954;-72
2023/12/08 04:26:16;;;;;;;7.97;7.30;;;;;;;;;;5052518;28;20517;-71
2023/12/08 04:28:42;;;;;;;8.80;6.60;;;;;;;;;;5052429;28;20421;-72
2023/12/08 04:31:08;;;;;;;7.20;6.50;;;;;;;;;;5055680;28;20410;-71
2023/12/08 04:33:34;;;;;;;12.50;7.27;;;;;;;;;;5056546;28;20766;-71
2023/12/08 04:36:00;;;;;;;8.37;7.50;;;;;;;;;;5056432;28;20445;-71
2023/12/08 04:38:26;;;;;;;13.23;7.40;;;;;;;;;;5056156;28;20775;-71
2023/12/08 04:40:52;;;;;;;6.83;6.27;;;;;;;;;;5056427;28;20449;-72
2023/12/08 04:43:18;;;;;;;7.87;7.00;;;;;;;;;;5055870;28;20512;-71
2023/12/08 04:45:44;;;;;;;8.87;7.20;;;;;;;;;;5056310;28;20419;-72
2023/12/08 04:48:10;;;;;;;6.80;6.17;;;;;;;;;;5056274;28;20422;-72
2023/12/08 04:50:36;;;;;;;6.70;6.23;;;;;;;;;;5056208;28;20894;-71
2023/12/08 04:53:02;;;;;;;7.03;6.53;;;;;;;;;;5056201;28;20992;-72
2023/12/08 04:55:28;;;;;;;7.17;6.47;;;;;;;;;;5056195;28;20421;-71
2023/12/08 04:57:54;;;;;;;7.87;6.10;;;;;;;;;;5056063;28;20422;-70
2023/12/08 05:00:20;;;;;;;7.60;6.80;;;;;;;;;;5055960;28;20513;-70
2023/12/08 05:02:47;;;;;;;6.60;5.97;;;;;;;;;;5056007;28;20434;-70
2023/12/08 05:05:13;;;;;;;7.40;6.70;;;;;;;;;;5055504;28;20497;-70
2023/12/08 05:07:39;;;;;;;7.57;7.03;;;;;;;;;;5055974;28;20410;-71
2023/12/08 05:10:05;;;;;;;6.40;5.90;;;;;;;;;;5055666;28;20422;-71
2023/12/08 05:12:31;;;;;;;6.90;6.10;;;;;;;;;;5055530;28;20410;-71
2023/12/08 05:14:57;;;;;;;7.50;6.80;;;;;;;;;;5055629;28;20429;-71
2023/12/08 05:17:23;;;;;;;7.17;6.67;;;;;;;;;;5055750;28;20414;-70
2023/12/08 05:22:53;;;;;;;6.60;6.20;;;;;;;;;;5055261;28;20452;-71
2023/12/08 05:25:19;;;;;;;8.70;7.80;;;;;;;;;;5055636;28;20435;-71
2023/12/08 05:27:44;;;;;;;6.60;6.10;;;;;;;;;;5055544;28;20419;-71
2023/12/08 05:30:11;;;;;;;13.10;6.93;;;;;;;;;;5055472;28;20912;-71
2023/12/08 05:32:37;;;;;;;6.10;5.50;;;;;;;;;;5055171;28;20411;-71
2023/12/08 05:35:03;;;;;;;8.63;7.83;;;;;;;;;;5055435;28;20453;-70
2023/12/08 05:37:29;;;;;;;8.40;7.50;;;;;;;;;;5055617;28;20410;-71
2023/12/08 05:39:55;;;;;;;11.30;6.30;;;;;;;;;;5055230;28;20434;-71
2023/12/08 05:42:21;;;;;;;6.40;5.90;;;;;;;;;;5053764;28;20414;-71
2023/12/08 05:44:47;;;;;;;6.97;6.33;;;;;;;;;;5054874;28;21008;-71
2023/12/08 05:47:13;;;;;;;9.60;6.50;;;;;;;;;;5055415;28;20908;-72
2023/12/08 05:49:39;;;;;;;6.90;6.30;;;;;;;;;;5054777;28;20509;-73
2023/12/08 05:52:05;;;;;;;7.27;6.77;;;;;;;;;;5055083;28;20410;-74
2023/12/08 05:54:31;;;;;;;9.13;8.20;;;;;;;;;;5054973;28;20505;-71
2023/12/08 05:56:58;;;;;;;7.37;6.77;;;;;;;;;;5054655;28;20445;-71
2023/12/08 05:59:24;;;;;;;8.97;7.00;;;;;;;;;;5054843;28;20455;-71
2023/12/08 06:01:50;;;;;;;6.70;6.10;;;;;;;;;;5054829;28;20937;-71
2023/12/08 06:04:16;;;;;;;7.23;6.60;;;;;;;;;;5054323;28;20986;-71
2023/12/08 06:06:42;;;;;;;7.40;6.67;;;;;;;;;;5054409;28;20423;-71
2023/12/08 06:09:09;;;;;;;6.83;6.00;;;;;;;;;;5054721;28;20418;-71
2023/12/08 06:11:35;;;;;;;7.13;6.43;;;;;;;;;;5054746;28;20422;-70
2023/12/08 06:14:01;;;;;;;10.37;6.47;;;;;;;;;;5054158;28;20823;-71
2023/12/08 06:16:27;;;;;;;6.80;6.30;;;;;;;;;;5054578;28;20415;-71
2023/12/08 06:18:53;;;;;;;7.40;6.80;;;;;;;;;;5054608;28;20419;-72
2023/12/08 06:21:19;;;;;;;9.30;6.87;;;;;;;;;;5054068;28;20414;-71
2023/12/08 06:23:46;;;;;;;7.47;6.80;;;;;;;;;;5054121;28;20498;-70
2023/12/08 06:26:12;;;;;;;6.90;6.20;;;;;;;;;;5054105;28;20903;-73
2023/12/08 06:28:38;;;;;;;7.00;6.40;;;;;;;;;;5054385;28;20879;-73
2023/12/08 06:31:04;;;;;;;9.37;6.47;;;;;;;;;;5054010;28;20429;-73
2023/12/08 06:33:30;;;;;;;6.87;6.40;;;;;;;;;;5054178;28;20438;-71
2023/12/08 06:35:56;;;;;;;8.13;7.33;;;;;;;;;;5053828;28;20972;-71
2023/12/08 06:38:22;;;;;;;7.53;6.90;;;;;;;;;;5052605;28;20428;-71
2023/12/08 06:40:48;;;;;;;6.97;6.37;;;;;;;;;;5053718;28;20427;-71
2023/12/08 06:43:14;;;;;;;8.20;7.17;;;;;;;;;;5053662;28;20476;-70
2023/12/08 06:45:40;;;;;;;7.43;6.77;;;;;;;;;;5054062;28;20465;-69
2023/12/08 06:48:07;;;;;;;7.57;6.80;;;;;;;;;;5053900;28;20894;-71
2023/12/08 06:50:33;;;;;;;6.97;6.03;;;;;;;;;;5054194;28;20489;-70
2023/12/08 06:52:59;;;;;;;7.73;7.00;;;;;;;;;;5053510;28;20461;-70
2023/12/08 06:55:26;;;;;;;8.37;7.57;;;;;;;;;;5053502;28;20410;-72
2023/12/08 06:57:52;;;;;;;7.87;6.30;;;;;;;;;;5053750;28;20430;-71
2023/12/08 07:00:18;;;;;;;6.73;6.23;;;;;;;;;;5053382;28;20419;-70
2023/12/08 07:02:47;;;;;;;6.30;5.80;;;;;;;;;;5053413;28;20422;-70
2023/12/08 07:05:19;;;;;;;8.13;6.77;;;;;;;;;;5083435;22;20501;-70
2023/12/08 07:07:45;;;;;;;7.53;6.83;;;;;;;;;;4984086;28;20849;-71
2023/12/08 07:10:11;;;;;;;5.97;5.47;;;;;;;;;;4987717;28;21011;-71
2023/12/08 07:12:36;;;;;;;6.87;6.40;;;;;;;;;;4985502;28;20936;-71
2023/12/08 07:15:03;;;;;;;6.67;6.27;;;;;;;;;;4999279;28;20925;-71
2023/12/08 07:17:29;;;;;;;7.00;6.37;;;;;;;;;;4983776;28;20913;-71
2023/12/08 07:19:55;;;;;;;7.47;6.77;;;;;;;;;;4986862;28;20468;-72
2023/12/08 07:22:21;;;;;;;9.07;6.87;;;;;;;;;;4985948;28;20429;-71
2023/12/08 07:24:47;;;;;;;8.40;7.60;;;;;;;;;;4989367;28;20843;-71
2023/12/08 07:27:13;;;;;;;8.47;6.27;;;;;;;;;;4990475;28;20967;-71
2023/12/08 07:29:39;;;;;;;7.07;6.47;;;;;;;;;;4988359;28;21004;-71
2023/12/08 07:32:06;;;;;;;6.10;5.53;;;;;;;;;;4988384;28;20484;-71
2023/12/08 07:34:32;;;;;;;7.13;6.40;;;;;;;;;;4989908;28;20456;-71
2023/12/08 07:36:58;;;;;;;7.13;6.47;;;;;;;;;;4986795;28;20963;-71
2023/12/08 07:39:24;;;;;;;6.40;5.40;;;;;;;;;;4988197;28;20519;-71
2023/12/08 07:41:50;;;;;;;6.90;6.27;;;;;;;;;;4990108;28;20502;-71
2023/12/08 07:44:15;;;;;;;6.97;6.47;;;;;;;;;;4988200;28;20635;-71
2023/12/08 07:46:41;;;;;;;8.90;6.33;;;;;;;;;;4987627;28;20445;-71
2023/12/08 07:49:08;;;;;;;8.17;7.50;;;;;;;;;;4985482;28;20452;-71
2023/12/08 07:51:34;;;;;;;6.33;5.83;;;;;;;;;;4990091;28;20924;-71
2023/12/08 07:54:00;;;;;;;5.70;5.30;;;;;;;;;;4989624;28;20460;-71
2023/12/08 07:56:26;;;;;;;6.60;6.00;;;;;;;;;;4989896;28;20434;-71
2023/12/08 07:58:52;;;;;;;6.07;5.63;;;;;;;;;;4988641;28;20455;-71
2023/12/08 08:01:19;;;;;;;7.20;6.70;;;;;;;;;;4988600;28;20445;-71
2023/12/08 08:03:45;;;;;;;6.67;6.07;;;;;;;;;;4987442;28;20484;-71
2023/12/08 08:06:11;;;;;;;7.17;6.50;;;;;;;;;;4993038;28;20483;-71
2023/12/08 08:08:37;;;;;;;6.40;5.90;;;;;;;;;;5007820;28;20433;-71
2023/12/08 08:11:03;;;;;;;7.13;6.50;;;;;;;;;;4989572;28;20815;-71
2023/12/08 08:13:29;;;;;;;10.20;5.77;;;;;;;;;;4973131;28;20846;-71
2023/12/08 08:15:55;;;;;;;5.60;5.30;;;;;;;;;;4972489;28;21011;-72
2023/12/08 08:18:21;;;;;;;5.67;5.27;;;;;;;;;;4991692;28;20445;-71
2023/12/08 08:20:48;;;;;;;7.10;6.43;;;;;;;;;;4993320;28;20909;-71
2023/12/08 08:23:13;;;;;;;7.90;7.00;;;;;;;;;;4991413;28;20444;-72
2023/12/08 08:25:39;;;;;;;10.33;6.70;;;;;;;;;;4993639;28;20429;-71
2023/12/08 08:28:06;;;;;;;9.70;8.73;;;;;;;;;;4991447;28;21059;-71
2023/12/08 08:30:33;;;;;;;5.80;5.20;;;;;;;;;;4993439;28;20491;-71
2023/12/08 08:32:59;;;;;;;5.10;4.67;;;;;;;;;;4989662;28;20937;-71
2023/12/08 08:35:25;;;;;;;5.80;5.33;;;;;;;;;;5008400;28;20452;-71
2023/12/08 08:37:51;;;;;;;5.27;4.87;;;;;;;;;;4988593;28;20576;-71
2023/12/08 08:40:17;;;;;;;5.47;5.00;;;;;;;;;;4992188;28;20529;-71
2023/12/08 08:42:43;;;;;;;7.43;5.13;;;;;;;;;;4988480;28;20453;-71
2023/12/08 08:45:09;;;;;;;5.50;5.00;;;;;;;;;;4990067;28;20496;-71
2023/12/08 08:47:35;;;;;;;6.10;5.00;;;;;;;;;;4992708;28;20471;-71
2023/12/08 08:50:01;;;;;;;5.20;4.80;;;;;;;;;;4986676;28;20468;-71
2023/12/08 08:52:27;;;;;;;5.00;4.67;;;;;;;;;;4989518;28;20502;-72
2023/12/08 08:54:53;;;;;;;7.13;6.30;;;;;;;;;;4990847;28;20453;-71
2023/12/08 08:57:19;;;;;;;7.67;6.13;;;;;;;;;;4993050;28;20431;-71
2023/12/08 08:59:45;;;;;;;5.73;5.40;;;;;;;;;;4990736;28;20447;-72
2023/12/08 09:02:11;;;;;;;5.80;4.50;;;;;;;;;;4990242;28;20807;-71
2023/12/08 09:04:37;;;;;;;6.73;5.60;;;;;;;;;;4992356;28;20508;-72
2023/12/08 09:07:03;;;;;;;5.07;4.73;;;;;;;;;;4991929;28;20473;-71
2023/12/08 09:09:29;;;;;;;5.43;4.93;;;;;;;;;;4991665;28;20518;-71
2023/12/08 09:11:55;;;;;;;5.37;4.93;;;;;;;;;;4990380;28;20878;-72
2023/12/08 09:14:21;;;;;;;4.93;4.60;;;;;;;;;;4988816;28;20468;-71
2023/12/08 09:16:47;;;;;;;5.03;4.73;;;;;;;;;;4989629;28;20455;-71
2023/12/08 09:19:13;;;;;;;5.90;4.40;;;;;;;;;;4991920;28;20475;-71
2023/12/08 09:21:39;;;;;;;4.73;4.33;;;;;;;;;;4992645;28;20793;-71
2023/12/08 09:24:05;;;;;;;3.50;3.30;;;;;;;;;;4991944;28;20828;-71
2023/12/08 09:26:31;;;;;;;4.73;4.47;;;;;;;;;;5004266;28;20460;-71
2023/12/08 09:28:57;;;;;;;8.50;5.27;;;;;;;;;;4989031;28;20738;-71
2023/12/08 09:31:23;;;;;;;3.70;3.60;;;;;;;;;;4992375;28;20475;-72
2023/12/08 09:33:49;;;;;;;4.53;4.23;;;;;;;;;;4991718;28;20409;-71
2023/12/08 09:36:15;;;;;;;7.97;7.23;;;;;;;;;;4990247;28;20449;-71
2023/12/08 09:38:41;;;;;;;5.67;5.17;;;;;;;;;;4992107;28;20422;-71
2023/12/08 09:41:08;;;;;;;4.20;4.00;;;;;;;;;;4987866;28;20448;-72
2023/12/08 09:43:49;;;;;;;5.13;4.90;;;;;;;;;;4990205;28;20571;-71
2023/12/08 09:46:15;;;;;;;5.07;4.67;;;;;;;;;;4990140;28;20778;-71
2023/12/08 09:48:44;;;;;;;6.13;5.53;;;;;;;;;;4990179;28;20799;-71
2023/12/08 09:51:10;;;;;;;10.87;8.73;;;;;;;;;;5004271;28;20471;-72
2023/12/08 09:53:37;;;;;;;12.60;9.10;;;;;;;;;;4988065;28;20437;-72
2023/12/08 09:56:03;;;;;;;11.50;10.50;;;;;;;;;;4989201;28;20468;-71
2023/12/08 09:58:31;;;;;;;32.37;22.50;;;;;;;;;;4990267;28;20421;-71
2023/12/08 10:00:58;;;;;;;25.93;17.30;;;;;;;;;;5004991;28;21024;-72
2023/12/08 10:03:24;;;;;;;7.53;6.83;;;;;;;;;;4989490;28;20515;-71
2023/12/08 10:05:50;;;;;;;8.47;7.53;;;;;;;;;;4989170;28;20521;-71
2023/12/08 10:08:17;;;;;;;17.53;8.57;;;;;;;;;;5001957;28;20444;-72
2023/12/08 10:10:43;;;;;;;7.47;6.80;;;;;;;;;;5004811;28;20428;-72
2023/12/08 10:13:09;;;;;;;13.20;7.27;;;;;;;;;;4984453;28;20475;-71
2023/12/08 10:15:35;;;;;;;8.80;7.40;;;;;;;;;;4989477;28;20428;-71
2023/12/08 10:18:01;;;;;;;6.30;5.97;;;;;;;;;;4988823;28;20428;-72
2023/12/08 10:20:27;;;;;;;6.70;6.30;;;;;;;;;;4989561;28;20464;-71
2023/12/08 10:22:54;;;;;;;7.37;6.67;;;;;;;;;;4986720;28;20486;-71
2023/12/08 10:25:21;;;;;;;9.20;8.40;;;;;;;;;;5004994;28;20484;-72
2023/12/08 10:27:49;;;;;;;14.27;8.90;;;;;;;;;;4987678;28;20425;-72
2023/12/08 10:30:15;;;;;;;8.03;7.27;;;;;;;;;;4989518;28;20413;-71
2023/12/08 10:32:42;;;;;;;6.00;5.70;;;;;;;;;;5002746;28;20437;-72
2023/12/08 10:35:10;;;;;;;8.33;5.20;;;;;;;;;;4987270;28;20434;-76
2023/12/08 10:37:37;;;;;;;6.57;4.87;;;;;;;;;;4988681;28;20440;-71
2023/12/08 10:40:04;;;;;;;4.97;4.70;;;;;;;;;;5004445;28;20437;-72
2023/12/08 10:42:30;;;;;;;7.73;7.03;;;;;;;;;;4989121;28;20460;-72
2023/12/08 10:44:58;;;;;;;3.53;3.27;;;;;;;;;;4987886;28;20611;-71
2023/12/08 10:47:24;;;;;;;1.43;1.43;;;;;;;;;;4987587;28;20434;-71
2023/12/08 10:49:50;;;;;;;1.90;1.80;;;;;;;;;;4986855;28;20465;-71
2023/12/08 10:52:17;;;;;;;1.40;1.30;;;;;;;;;;4981974;28;20456;-71
2023/12/08 10:54:43;;;;;;;2.53;0.90;;;;;;;;;;5002533;28;20437;-71
2023/12/08 10:57:09;;;;;;;0.70;0.70;;;;;;;;;;4987593;28;20437;-72
2023/12/08 10:59:38;;;;;;;0.70;0.70;;;;;;;;;;4989247;28;21006;-71
2023/12/08 11:02:08;;;;;;;2.10;2.00;;;;;;;;;;4988068;28;20816;-71
2023/12/08 11:04:37;;;;;;;1.00;1.00;;;;;;;;;;4981805;28;20493;-71
2023/12/08 11:07:15;;;;;;;2.33;2.10;;;;;;;;;;4988883;28;20508;-71
2023/12/08 11:09:41;;;;;;;2.93;2.60;;;;;;;;;;4989249;28;20524;-71
2023/12/08 11:12:08;;;;;;;1.47;1.47;;;;;;;;;;4990025;28;20508;-72
2023/12/08 11:14:38;;;;;;;0.60;0.60;;;;;;;;;;4986697;28;20928;-71
2023/12/08 11:17:07;;;;;;;1.60;1.00;;;;;;;;;;4987217;28;20495;-71
2023/12/08 11:19:34;;;;;;;6.43;5.60;;;;;;;;;;4983914;28;20449;-72
2023/12/08 11:22:00;;;;;;;5.57;5.17;;;;;;;;;;4987811;28;20862;-70
2023/12/08 11:24:27;;;;;;;2.13;2.13;;;;;;;;;;4980622;28;20583;-70
2023/12/08 11:26:56;;;;;;;8.00;7.40;;;;;;;;;;4984501;28;20445;-72
2023/12/08 11:29:35;;;;;;;4.93;4.73;;;;;;;;;;4984183;28;20456;-73
2023/12/08 11:32:00;;;;;;;2.00;1.93;;;;;;;;;;4987726;28;20479;-73
2023/12/08 11:34:33;;;;;;;2.63;2.53;;;;;;;;;;4984674;28;20933;-71
2023/12/08 11:37:01;;;;;;;1.80;1.70;;;;;;;;;;4986997;28;20429;-71
2023/12/08 11:39:36;;;;;;;1.17;1.17;;;;;;;;;;4984630;28;20433;-70
2023/12/08 11:42:07;;;;;;;1.50;1.43;;;;;;;;;;4988990;28;20437;-71
2023/12/08 11:44:33;;;;;;;2.03;1.67;;;;;;;;;;4988133;28;20535;-71
2023/12/08 11:47:03;;;;;;;15.13;9.90;;;;;;;;;;4988375;28;20484;-70
2023/12/08 11:49:30;;;;;;;3.60;2.50;;;;;;;;;;4989290;28;20447;-71
2023/12/08 11:52:09;;;;;;;10.73;9.63;;;;;;;;;;5003481;28;20437;-71
2023/12/08 11:54:55;;;;;;;22.33;13.63;;;;;;;;;;4990034;28;20433;-72
2023/12/08 11:57:22;;;;;;;25.60;15.27;;;;;;;;;;4984949;28;20421;-71
2023/12/08 11:59:50;;;;;;;22.60;14.27;;;;;;;;;;4988725;28;20452;-71
2023/12/08 12:02:16;;;;;;;3.20;3.03;;;;;;;;;;4988906;28;20420;-71
2023/12/08 12:04:42;;;;;;;3.43;3.13;;;;;;;;;;4989096;28;20477;-70
2023/12/08 12:07:08;;;;;;;5.93;5.53;;;;;;;;;;4988916;28;20417;-71
2023/12/08 12:09:34;;;;;;;7.00;6.30;;;;;;;;;;4989166;28;20444;-71
2023/12/08 12:12:07;;;;;;;6.10;5.63;;;;;;;;;;4989293;28;20416;-71
2023/12/08 12:14:34;;;;;;;2.90;2.80;;;;;;;;;;4988697;28;20483;-72
2023/12/08 12:17:00;;;;;;;2.87;2.67;;;;;;;;;;4988841;28;20992;-71
2023/12/08 12:19:26;;;;;;;3.80;3.60;;;;;;;;;;4988906;28;20445;-71
2023/12/08 12:21:52;;;;;;;3.00;2.90;;;;;;;;;;4989847;28;20444;-71
2023/12/08 12:24:18;;;;;;;2.17;2.13;;;;;;;;;;5000305;28;20496;-71
2023/12/08 12:26:44;;;;;;;0.80;0.80;;;;;;;;;;4989594;28;20421;-71
2023/12/08 12:29:10;;;;;;;2.60;2.40;;;;;;;;;;4987965;28;20445;-71
2023/12/08 12:31:37;;;;;;;5.67;5.13;;;;;;;;;;4989780;28;20444;-71
2023/12/08 12:34:03;;;;;;;4.90;1.30;;;;;;;;;;4982419;28;20496;-71
2023/12/08 12:36:29;;;;;;;3.03;0.97;;;;;;;;;;4988452;28;20583;-71
2023/12/08 12:38:55;;;;;;;1.73;1.40;;;;;;;;;;4987007;28;20920;-71
2023/12/08 12:41:21;;;;;;;31.00;12.03;;;;;;;;;;4989137;28;20421;-71
2023/12/08 12:43:47;;;;;;;21.27;8.67;;;;;;;;;;4988689;28;20516;-71
2023/12/08 12:46:13;;;;;;;14.00;6.77;;;;;;;;;;4988139;28;20437;-70
2023/12/08 12:48:39;;;;;;;0.97;0.97;;;;;;;;;;4986080;28;20926;-71
2023/12/08 12:51:07;;;;;;;0.53;0.53;;;;;;;;;;4987167;28;20455;-71
2023/12/08 12:53:42;;;;;;;0.50;0.50;;;;;;;;;;4983822;28;20479;-72
2023/12/08 12:56:08;;;;;;;1.90;0.87;;;;;;;;;;4985373;28;20463;-71
2023/12/08 12:58:34;;;;;;;2.37;2.17;;;;;;;;;;4990872;28;20471;-71
2023/12/08 13:01:09;;;;;;;0.77;0.77;;;;;;;;;;4989665;28;20559;-70
2023/12/08 13:03:35;;;;;;;1.90;1.80;;;;;;;;;;4989912;28;20968;-71
2023/12/08 13:06:06;;;;;;;1.00;1.00;;;;;;;;;;4990595;28;20472;-71
2023/12/08 13:08:42;;;;;;;1.40;1.30;;;;;;;;;;4989346;28;20436;-71
2023/12/08 13:11:08;;;;;;;1.80;1.80;;;;;;;;;;4990140;28;20524;-68
2023/12/08 13:13:36;;;;;;;1.63;1.10;;;;;;;;;;4989569;28;20492;-68
2023/12/08 13:16:02;;;;;;;1.87;1.20;;;;;;;;;;4986606;28;20519;-72
2023/12/08 13:18:28;;;;;;;1.80;1.40;;;;;;;;;;4983904;28;20787;-71
2023/12/08 13:20:54;;;;;;;2.73;2.63;;;;;;;;;;5003573;28;20941;-72
2023/12/08 13:23:20;;;;;;;1.20;1.20;;;;;;;;;;4987498;28;21162;-72
2023/12/08 13:25:46;;;;;;;5.70;2.50;;;;;;;;;;4985269;28;20443;-71
2023/12/08 13:28:12;;;;;;;3.73;3.53;;;;;;;;;;4986052;28;20437;-71
2023/12/08 13:30:38;;;;;;;10.80;7.87;;;;;;;;;;4985654;28;20434;-71
2023/12/08 13:33:04;;;;;;;4.83;2.30;;;;;;;;;;4988901;28;21007;-71
2023/12/08 13:35:30;;;;;;;5.30;2.03;;;;;;;;;;4990982;28;21015;-71
2023/12/08 13:37:56;;;;;;;3.07;2.40;;;;;;;;;;4990594;28;20440;-71
2023/12/08 13:40:27;;;;;;;2.50;2.47;;;;;;;;;;5002463;28;20429;-71
2023/12/08 13:42:53;;;;;;;2.43;1.80;;;;;;;;;;4989786;28;20441;-70
2023/12/08 13:45:19;;;;;;;2.03;1.87;;;;;;;;;;4985342;28;20848;-70
2023/12/08 13:47:45;;;;;;;3.27;2.23;;;;;;;;;;4987890;28;20421;-70
2023/12/08 13:50:11;;;;;;;4.23;3.93;;;;;;;;;;4989309;28;20499;-71
2023/12/08 13:52:37;;;;;;;8.47;5.83;;;;;;;;;;4990176;28;20503;-71
2023/12/08 13:55:03;;;;;;;8.10;5.00;;;;;;;;;;4987028;28;20463;-71
2023/12/08 13:57:29;;;;;;;4.33;4.13;;;;;;;;;;4990765;28;20443;-71
2023/12/08 13:59:55;;;;;;;7.20;5.57;;;;;;;;;;4988725;28;20445;-72
2023/12/08 14:02:21;;;;;;;4.83;4.33;;;;;;;;;;5004014;28;20520;-72
2023/12/08 14:04:48;;;;;;;17.47;9.63;;;;;;;;;;4988918;28;20485;-72
2023/12/08 14:07:13;;;;;;;23.30;11.50;;;;;;;;;;4988787;28;20860;-72
2023/12/08 14:09:39;;;;;;;23.67;11.40;;;;;;;;;;5001498;28;20457;-72
2023/12/08 14:12:06;;;;;;;8.33;7.03;;;;;;;;;;4988492;28;20929;-71
2023/12/08 14:14:31;;;;;;;6.00;4.83;;;;;;;;;;4998914;28;20429;-72
2023/12/08 14:16:57;;;;;;;3.43;3.23;;;;;;;;;;4990192;28;20420;-72
2023/12/08 14:19:23;;;;;;;10.20;6.60;;;;;;;;;;4989553;28;20445;-72
2023/12/08 14:21:49;;;;;;;17.93;10.70;;;;;;;;;;4989520;28;20456;-72
2023/12/08 14:24:15;;;;;;;11.13;7.10;;;;;;;;;;4985666;28;20473;-72
2023/12/08 14:26:41;;;;;;;4.27;3.90;;;;;;;;;;4987517;28;20822;-72
2023/12/08 14:29:07;;;;;;;2.60;2.50;;;;;;;;;;4988742;28;20417;-72
2023/12/08 14:31:33;;;;;;;2.13;1.87;;;;;;;;;;4989431;28;20432;-72
2023/12/08 14:33:59;;;;;;;1.20;1.10;;;;;;;;;;4989707;28;20487;-72
2023/12/08 14:36:25;;;;;;;1.53;1.10;;;;;;;;;;4986458;28;20425;-72
2023/12/08 14:38:51;;;;;;;2.20;1.50;;;;;;;;;;4983650;28;20539;-71
2023/12/08 14:41:17;;;;;;;2.20;1.80;;;;;;;;;;4989148;28;20438;-72
2023/12/08 14:43:43;;;;;;;1.73;1.63;;;;;;;;;;4987525;28;20488;-72